createdAt,value
2024-05-09T00:00:47.535Z,3.80
2024-05-09T00:03:35.602Z,3.10
2024-05-09T00:06:04.386Z,3.40
2024-05-09T00:08:32.567Z,3.30
2024-05-09T00:11:00.836Z,3.50
2024-05-09T00:13:28.911Z,3.50
2024-05-09T00:15:56.965Z,3.60
2024-05-09T00:18:25.004Z,3.90
2024-05-09T00:20:53.151Z,3.70
2024-05-09T00:23:21.486Z,3.30
2024-05-09T00:25:49.421Z,4.10
2024-05-09T00:28:17.330Z,3.70
2024-05-09T00:30:45.180Z,3.30
2024-05-09T00:33:13.321Z,3.70
2024-05-09T00:35:41.777Z,3.80
2024-05-09T00:38:11.081Z,3.80
2024-05-09T00:40:41.955Z,4.10
2024-05-09T00:43:12.864Z,3.70
2024-05-09T00:48:13.971Z,3.30
2024-05-09T00:50:45.098Z,4.00
2024-05-09T00:53:14.947Z,4.60
2024-05-09T00:55:43.626Z,3.80
2024-05-09T00:58:14.734Z,3.70
2024-05-09T01:00:43.438Z,3.80
2024-05-09T01:03:13.508Z,4.20
2024-05-09T01:05:43.931Z,4.10
2024-05-09T01:08:12.877Z,4.20
2024-05-09T01:10:44.104Z,4.10
2024-05-09T01:13:14.109Z,4.40
2024-05-09T01:15:42.489Z,3.80
2024-05-09T01:18:12.399Z,4.20
2024-05-09T01:20:44.198Z,3.80
2024-05-09T01:23:15.742Z,3.80
2024-05-09T01:25:46.314Z,3.50
2024-05-09T01:28:15.234Z,4.40
2024-05-09T01:30:43.611Z,4.00
2024-05-09T01:33:12.606Z,3.90
2024-05-09T01:35:42.526Z,3.90
2024-05-09T01:38:17.356Z,3.90
2024-05-09T01:40:47.014Z,3.80
2024-05-09T01:43:16.162Z,4.20
2024-05-09T01:45:44.320Z,3.90
2024-05-09T01:48:12.444Z,3.90
2024-05-09T01:50:42.780Z,4.10
2024-05-09T01:53:14.179Z,4.60
2024-05-09T01:55:43.420Z,4.40
2024-05-09T01:58:11.527Z,4.00
2024-05-09T02:00:42.424Z,3.60
2024-05-09T02:03:15.912Z,4.10
2024-05-09T02:05:49.457Z,4.30
2024-05-09T02:08:22.018Z,4.60
2024-05-09T02:10:50.770Z,4.50
2024-05-09T02:13:19.104Z,5.40
2024-05-09T02:15:47.096Z,6.60
2024-05-09T02:18:15.241Z,6.70
2024-05-09T02:20:44.059Z,7.20
2024-05-09T02:23:13.851Z,7.20
2024-05-09T02:25:42.110Z,8.70
2024-05-09T02:28:10.083Z,8.80
2024-05-09T02:30:40.972Z,8.50
2024-05-09T02:33:12.459Z,8.70
2024-05-09T02:35:43.752Z,9.20
2024-05-09T02:40:41.402Z,8.70
2024-05-09T02:43:12.640Z,8.30
2024-05-09T02:45:41.609Z,9.30
2024-05-09T02:48:13.853Z,8.70
2024-05-09T02:50:44.263Z,8.00
2024-05-09T02:53:13.504Z,7.00
2024-05-09T02:55:42.311Z,6.90
2024-05-09T02:58:11.076Z,6.90
2024-05-09T03:00:41.963Z,7.60
2024-05-09T03:03:13.807Z,7.20
2024-05-09T03:05:45.170Z,7.20
2024-05-09T03:08:13.937Z,7.60
2024-05-09T03:10:42.829Z,7.50
2024-05-09T03:13:14.165Z,7.70
2024-05-09T03:15:44.596Z,7.20
2024-05-09T03:18:13.418Z,8.20
2024-05-09T03:20:44.177Z,8.20
2024-05-09T03:23:12.697Z,8.30
2024-05-09T03:25:40.756Z,7.80
2024-05-09T03:28:08.713Z,9.00
2024-05-09T03:30:41.716Z,8.70
2024-05-09T03:33:17.434Z,8.80
2024-05-09T03:35:47.672Z,9.10
2024-05-09T03:38:15.971Z,8.90
2024-05-09T03:40:45.617Z,8.90
2024-05-09T03:43:13.977Z,9.40
2024-05-09T03:45:50.278Z,9.60
2024-05-09T03:48:18.413Z,10.10
2024-05-09T03:50:47.276Z,8.60
2024-05-09T03:53:15.764Z,10.30
2024-05-09T03:55:43.791Z,9.30
2024-05-09T03:58:14.403Z,10.10
2024-05-09T04:00:43.158Z,9.20
2024-05-09T04:03:12.809Z,10.60
2024-05-09T04:05:42.939Z,9.70
2024-05-09T04:08:15.283Z,10.80
2024-05-09T04:10:44.126Z,10.40
2024-05-09T04:13:12.134Z,10.30
2024-05-09T04:15:40.162Z,11.00
2024-05-09T04:18:08.301Z,11.20
2024-05-09T04:20:39.664Z,11.30
2024-05-09T04:23:13.833Z,10.80
2024-05-09T04:25:44.382Z,10.20
2024-05-09T04:28:13.499Z,10.40
2024-05-09T04:30:42.377Z,10.70
2024-05-09T04:33:13.134Z,9.20
2024-05-09T04:35:43.625Z,9.30
2024-05-09T04:38:13.453Z,8.50
2024-05-09T04:40:41.881Z,9.80
2024-05-09T04:43:18.685Z,8.70
2024-05-09T04:45:46.892Z,9.90
2024-05-09T04:48:16.661Z,10.80
2024-05-09T04:50:45.135Z,10.00
2024-05-09T04:53:16.082Z,9.70
2024-05-09T04:55:44.272Z,8.60
2024-05-09T04:58:12.558Z,8.70
2024-05-09T05:00:41.613Z,7.90
2024-05-09T05:03:14.493Z,7.60
2024-05-09T05:05:46.227Z,7.20
2024-05-09T05:08:16.457Z,6.90
2024-05-09T05:10:45.814Z,6.90
2024-05-09T05:13:22.368Z,7.20
2024-05-09T05:15:53.600Z,6.50
2024-05-09T05:18:22.387Z,6.50
2024-05-09T05:20:50.678Z,6.20
2024-05-09T05:23:20.258Z,6.30
2024-05-09T05:25:51.102Z,5.80
2024-05-09T05:28:19.524Z,6.40
2024-05-09T05:30:47.548Z,5.80
2024-05-09T05:33:18.405Z,6.20
2024-05-09T05:35:46.900Z,6.10
2024-05-09T05:38:15.027Z,6.10
2024-05-09T05:40:43.040Z,6.20
2024-05-09T05:43:16.894Z,6.30
2024-05-09T05:45:45.609Z,6.20
2024-05-09T05:48:17.111Z,6.30
2024-05-09T05:50:45.805Z,6.50
2024-05-09T05:53:14.274Z,5.90
2024-05-09T05:55:42.523Z,6.00
2024-05-09T05:58:11.508Z,6.10
2024-05-09T06:00:41.216Z,6.40
2024-05-09T06:03:11.005Z,6.30
2024-05-09T06:05:46.904Z,6.30
2024-05-09T06:08:15.361Z,6.50
2024-05-09T06:10:43.751Z,5.90
2024-05-09T06:13:12.999Z,6.00
2024-05-09T06:15:42.054Z,6.90
2024-05-09T06:18:11.701Z,6.30
2024-05-09T06:20:42.648Z,6.70
2024-05-09T06:23:12.416Z,6.80
2024-05-09T06:25:42.589Z,6.70
2024-05-09T06:28:11.514Z,6.00
2024-05-09T06:30:42.152Z,7.00
2024-05-09T06:33:13.922Z,6.50
2024-05-09T06:35:44.927Z,6.30
2024-05-09T06:38:13.554Z,5.70
2024-05-09T06:40:43.676Z,5.60
2024-05-09T06:43:13.764Z,6.00
2024-05-09T06:45:42.111Z,5.80
2024-05-09T06:48:10.496Z,5.20
2024-05-09T06:50:40.220Z,5.40
2024-05-09T06:53:09.390Z,6.10
2024-05-09T06:55:37.933Z,6.10
2024-05-09T06:58:07.054Z,5.70
2024-05-09T07:00:39.597Z,5.90
2024-05-09T07:03:11.610Z,5.10
2024-05-09T07:05:40.901Z,5.50
2024-05-09T07:08:09.021Z,5.90
2024-05-09T07:10:37.303Z,5.60
2024-05-09T07:13:10.032Z,5.30
2024-05-09T07:15:38.519Z,5.90
2024-05-09T07:18:20.087Z,5.20
2024-05-09T07:20:49.841Z,5.00
2024-05-09T07:23:19.019Z,5.40
2024-05-09T07:25:47.522Z,5.40
2024-05-09T07:28:19.680Z,5.60
2024-05-09T07:30:47.983Z,5.80
2024-05-09T07:33:21.516Z,5.20
2024-05-09T07:35:51.139Z,4.60
2024-05-09T07:38:19.275Z,4.50
2024-05-09T07:40:47.434Z,4.60
2024-05-09T07:43:15.993Z,4.40
2024-05-09T07:45:51.889Z,4.50
2024-05-09T07:53:39.941Z,4.30
2024-05-09T07:56:13.942Z,4.00
2024-05-09T07:58:43.699Z,3.80
2024-05-09T08:01:11.726Z,3.70
2024-05-09T08:03:40.050Z,3.00
2024-05-09T08:06:08.215Z,3.30
2024-05-09T08:08:35.982Z,3.40
2024-05-09T08:11:04.010Z,3.70
2024-05-09T08:13:32.123Z,3.40
2024-05-09T08:16:01.126Z,2.30
2024-05-09T08:18:29.395Z,2.70
2024-05-09T08:20:58.091Z,2.90
2024-05-09T08:23:25.953Z,3.40
2024-05-09T08:25:53.804Z,3.00
2024-05-09T08:28:21.675Z,3.40
2024-05-09T08:30:50.047Z,4.00
2024-05-09T08:33:18.237Z,3.70
2024-05-09T08:35:46.400Z,3.40
2024-05-09T08:38:14.318Z,3.50
2024-05-09T08:40:42.474Z,3.40
2024-05-09T08:43:12.021Z,3.10
2024-05-09T08:45:44.199Z,3.70
2024-05-09T08:48:15.494Z,3.80
2024-05-09T08:50:45.539Z,2.80
2024-05-09T08:53:16.915Z,2.50
2024-05-09T08:55:49.388Z,3.20
2024-05-09T08:58:20.613Z,2.60
2024-05-09T09:00:49.508Z,2.90
2024-05-09T09:03:19.608Z,2.70
2024-05-09T09:08:26.840Z,2.40
2024-05-09T09:10:58.086Z,2.40
2024-05-09T09:13:26.769Z,2.70
2024-05-09T09:15:58.463Z,2.70
2024-05-09T09:18:27.782Z,2.50
2024-05-09T09:20:56.192Z,2.10
2024-05-09T09:23:24.062Z,2.20
2024-05-09T09:25:52.136Z,2.70
2024-05-09T09:28:23.128Z,2.50
2024-05-09T09:30:51.266Z,2.90
2024-05-09T09:33:19.614Z,2.80
2024-05-09T09:35:47.591Z,2.80
2024-05-09T09:38:18.150Z,2.40
2024-05-09T09:40:49.705Z,20.00
2024-05-09T09:43:20.069Z,3.30
2024-05-09T09:45:53.152Z,5.60
2024-05-09T09:48:22.752Z,3.50
2024-05-09T09:50:51.910Z,2.40
2024-05-09T09:53:20.393Z,2.90
2024-05-09T09:55:48.744Z,2.30
2024-05-09T09:58:17.646Z,2.40
2024-05-09T10:00:45.952Z,2.40
2024-05-09T10:03:14.162Z,2.80
2024-05-09T10:05:45.345Z,2.80
2024-05-09T10:08:16.073Z,2.50
2024-05-09T10:10:47.319Z,2.70
2024-05-09T10:13:16.203Z,2.80
2024-05-09T10:15:46.371Z,3.20
2024-05-09T10:18:15.261Z,2.80
2024-05-09T10:20:44.775Z,2.50
2024-05-09T10:23:44.245Z,2.40
2024-05-09T10:26:12.069Z,2.50
2024-05-09T10:28:44.314Z,2.90
2024-05-09T10:31:13.875Z,2.70
2024-05-09T10:33:48.151Z,3.30
2024-05-09T10:36:20.946Z,2.70
2024-05-09T10:38:49.845Z,2.80
2024-05-09T10:41:18.823Z,3.40
2024-05-09T10:43:47.768Z,2.80
2024-05-09T10:46:16.156Z,2.60
2024-05-09T10:48:45.131Z,2.10
2024-05-09T10:51:13.581Z,2.60
2024-05-09T10:53:42.818Z,2.50
2024-05-09T10:56:11.441Z,2.40
2024-05-09T10:58:39.301Z,2.00
2024-05-09T11:01:08.875Z,2.20
2024-05-09T11:03:38.174Z,1.90
2024-05-09T11:06:07.304Z,1.80
2024-05-09T11:08:36.084Z,1.90
2024-05-09T11:11:07.464Z,1.80
2024-05-09T11:13:38.252Z,1.90
2024-05-09T11:16:19.293Z,1.90
2024-05-09T11:18:55.968Z,1.70
2024-05-09T11:21:25.045Z,2.00
2024-05-09T11:23:53.278Z,2.30
2024-05-09T11:26:25.501Z,1.60
2024-05-09T11:28:53.531Z,2.10
2024-05-09T11:31:21.980Z,1.80
2024-05-09T11:33:50.471Z,1.60
2024-05-09T11:36:18.449Z,1.50
2024-05-09T11:38:46.310Z,2.20
2024-05-09T11:41:18.796Z,1.80
2024-05-09T11:43:47.021Z,2.10
2024-05-09T11:46:15.256Z,1.70
2024-05-09T11:48:43.653Z,1.60
2024-05-09T11:51:11.783Z,2.10
2024-05-09T11:53:39.654Z,1.90
2024-05-09T11:56:07.628Z,1.80
2024-05-09T11:58:36.972Z,1.90
2024-05-09T12:01:05.437Z,1.70
2024-05-09T12:03:35.225Z,1.90
2024-05-09T12:06:04.218Z,1.60
2024-05-09T12:08:32.376Z,1.60
2024-05-09T12:11:00.473Z,1.80
2024-05-09T12:13:28.790Z,2.20
2024-05-09T12:15:56.869Z,1.40
2024-05-09T12:18:24.795Z,1.90
2024-05-09T12:20:52.740Z,1.80
2024-05-09T12:23:20.585Z,1.90
2024-05-09T12:25:48.455Z,1.90
2024-05-09T12:28:16.583Z,1.90
2024-05-09T12:30:44.758Z,1.80
2024-05-09T12:33:13.914Z,1.80
2024-05-09T12:35:44.520Z,1.90
2024-05-09T12:38:15.382Z,1.60
2024-05-09T12:40:43.757Z,2.40
2024-05-09T12:43:12.175Z,2.60
2024-05-09T12:45:40.656Z,2.60
2024-05-09T12:48:12.317Z,1.90
2024-05-09T12:50:41.546Z,2.40
2024-05-09T12:53:09.985Z,2.20
2024-05-09T12:55:45.037Z,1.80
2024-05-09T12:58:23.752Z,1.80
2024-05-09T13:00:52.581Z,1.70
2024-05-09T13:03:21.898Z,1.50
2024-05-09T13:05:50.880Z,1.60
2024-05-09T13:08:19.539Z,2.50
2024-05-09T13:10:48.104Z,2.20
2024-05-09T13:13:16.616Z,1.90
2024-05-09T13:15:44.852Z,1.80
2024-05-09T13:18:12.798Z,1.50
2024-05-09T13:20:40.727Z,1.60
2024-05-09T13:23:08.914Z,1.60
2024-05-09T13:28:07.678Z,1.70
2024-05-09T13:30:40.471Z,1.70
2024-05-09T13:33:12.049Z,1.50
2024-05-09T13:35:47.657Z,1.40
2024-05-09T13:38:19.803Z,1.60
2024-05-09T13:40:48.406Z,1.50
2024-05-09T13:43:17.795Z,1.60
2024-05-09T13:45:46.567Z,1.50
2024-05-09T13:48:14.720Z,1.20
2024-05-09T13:50:42.755Z,1.60
2024-05-09T13:53:10.728Z,1.50
2024-05-09T13:55:39.716Z,1.20
2024-05-09T13:58:09.140Z,1.20
2024-05-09T14:00:45.248Z,1.60
2024-05-09T14:03:18.916Z,1.40
2024-05-09T14:05:50.877Z,1.60
2024-05-09T14:08:22.245Z,1.40
2024-05-09T14:10:51.059Z,1.30
2024-05-09T14:13:19.936Z,1.20
2024-05-09T14:15:48.310Z,1.40
2024-05-09T14:18:16.655Z,1.40
2024-05-09T14:20:44.576Z,1.30
2024-05-09T14:23:12.638Z,1.40
2024-05-09T14:25:42.615Z,1.30
2024-05-09T14:28:13.092Z,2.00
2024-05-09T14:30:42.659Z,1.30
2024-05-09T14:33:11.620Z,1.10
2024-05-09T14:38:08.743Z,1.20
2024-05-09T14:40:42.235Z,1.40
2024-05-09T14:43:13.671Z,1.30
2024-05-09T14:45:43.337Z,1.70
2024-05-09T14:48:14.134Z,1.10
2024-05-09T14:50:42.487Z,1.30
2024-05-09T14:53:11.960Z,1.20
2024-05-09T14:55:41.851Z,1.30
2024-05-09T14:58:12.114Z,1.10
2024-05-09T15:00:46.233Z,1.40
2024-05-09T15:03:19.719Z,2.20
2024-05-09T15:05:48.625Z,1.40
2024-05-09T15:08:18.112Z,1.30
2024-05-09T15:10:47.130Z,1.80
2024-05-09T15:13:16.863Z,1.70
2024-05-09T15:15:45.559Z,1.20
2024-05-09T15:18:14.602Z,0.80
2024-05-09T15:20:43.891Z,1.00
2024-05-09T15:23:11.991Z,1.10
2024-05-09T15:25:40.427Z,0.90
2024-05-09T15:28:08.841Z,0.90
2024-05-09T15:30:37.609Z,1.00
2024-05-09T15:35:36.281Z,0.90
2024-05-09T15:38:04.911Z,0.90
2024-05-09T15:40:39.541Z,0.90
2024-05-09T15:43:10.932Z,1.10
2024-05-09T15:45:41.112Z,1.10
2024-05-09T15:48:10.735Z,1.00
2024-05-09T15:50:41.672Z,1.20
2024-05-09T15:53:12.461Z,0.80
2024-05-09T15:55:42.550Z,1.00
2024-05-09T15:58:11.303Z,0.90
2024-05-09T16:00:42.378Z,1.00
2024-05-09T16:03:13.972Z,0.90
2024-05-09T16:05:44.823Z,1.00
2024-05-09T16:08:13.631Z,0.90
2024-05-09T16:10:48.014Z,0.80
2024-05-09T16:13:17.186Z,0.90
2024-05-09T16:15:46.212Z,1.00
2024-05-09T16:18:14.462Z,1.10
2024-05-09T16:20:44.739Z,0.90
2024-05-09T16:23:14.317Z,1.30
2024-05-09T16:25:47.806Z,1.00
2024-05-09T16:28:16.739Z,1.10
2024-05-09T16:30:44.817Z,1.10
2024-05-09T16:33:13.119Z,0.90
2024-05-09T16:35:41.123Z,1.50
2024-05-09T16:38:09.033Z,1.30
2024-05-09T16:40:40.422Z,1.40
2024-05-09T16:43:11.144Z,1.40
2024-05-09T16:45:41.082Z,1.50
2024-05-09T16:50:37.655Z,1.60
2024-05-09T16:53:06.665Z,1.50
2024-05-09T16:55:36.105Z,1.70
2024-05-09T16:58:06.363Z,1.60
2024-05-09T17:00:40.845Z,1.30
2024-05-09T17:03:14.807Z,1.60
2024-05-09T17:05:46.768Z,1.50
2024-05-09T17:08:18.058Z,1.70
2024-05-09T17:10:48.670Z,1.90
2024-05-09T17:13:17.541Z,1.60
2024-05-09T17:15:45.825Z,1.60
2024-05-09T17:18:14.221Z,1.90
2024-05-09T17:20:42.225Z,1.30
2024-05-09T17:23:13.656Z,1.80
2024-05-09T17:25:42.766Z,1.90
2024-05-09T17:28:11.228Z,1.80
2024-05-09T17:30:41.970Z,1.60
2024-05-09T17:33:12.478Z,1.70
2024-05-09T17:38:09.586Z,1.60
2024-05-09T17:40:38.658Z,2.10
2024-05-09T17:43:09.516Z,1.90
2024-05-09T17:45:40.793Z,1.70
2024-05-09T17:48:11.185Z,1.90
2024-05-09T17:50:40.511Z,2.10
2024-05-09T17:53:10.339Z,2.00
2024-05-09T17:55:39.439Z,2.00
2024-05-09T17:58:07.967Z,4.80
2024-05-09T18:00:39.728Z,5.90
2024-05-09T18:03:12.210Z,6.60
2024-05-09T18:05:43.671Z,7.20
2024-05-09T18:08:12.904Z,7.50
2024-05-09T18:10:41.858Z,6.10
2024-05-09T18:13:11.516Z,5.00
2024-05-09T18:15:40.830Z,5.00
2024-05-09T18:18:10.812Z,4.30
2024-05-09T18:23:16.478Z,4.00
2024-05-09T18:25:47.787Z,2.90
2024-05-09T18:28:17.062Z,3.30
2024-05-09T18:30:45.677Z,3.50
2024-05-09T18:33:14.173Z,3.00
2024-05-09T18:35:44.032Z,3.20
2024-05-09T18:38:12.161Z,3.40
2024-05-09T18:40:42.004Z,3.30
2024-05-09T18:43:11.922Z,3.00
2024-05-09T18:45:40.285Z,2.60
2024-05-09T18:48:10.040Z,2.20
2024-05-09T18:50:40.583Z,2.20
2024-05-09T18:53:11.349Z,1.80
2024-05-09T18:55:41.478Z,1.90
2024-05-09T18:58:09.556Z,2.00
2024-05-09T19:00:40.273Z,1.90
2024-05-09T19:03:13.260Z,1.80
2024-05-09T19:05:44.269Z,1.70
2024-05-09T19:08:14.679Z,1.50
2024-05-09T19:10:43.603Z,1.70
2024-05-09T19:13:13.576Z,2.00
2024-05-09T19:15:43.456Z,2.10
2024-05-09T19:18:13.929Z,2.10
2024-05-09T19:20:43.450Z,2.00
2024-05-09T19:23:12.309Z,2.70
2024-05-09T19:25:40.359Z,2.30
2024-05-09T19:28:08.619Z,2.40
2024-05-09T19:30:40.895Z,2.10
2024-05-09T19:33:13.106Z,2.50
2024-05-09T19:35:43.119Z,2.00
2024-05-09T19:38:12.142Z,2.30
2024-05-09T19:40:40.997Z,2.10
2024-05-09T19:43:09.324Z,1.90
2024-05-09T19:45:37.546Z,2.20
2024-05-09T19:48:06.707Z,2.00
2024-05-09T19:50:41.644Z,1.80
2024-05-09T19:53:14.221Z,2.00
2024-05-09T19:55:43.102Z,1.80
2024-05-09T19:58:12.470Z,1.80
2024-05-09T20:00:43.507Z,2.00
2024-05-09T20:03:14.832Z,2.00
2024-05-09T20:05:45.283Z,2.10
2024-05-09T20:08:13.793Z,2.10
2024-05-09T20:10:41.772Z,2.40
2024-05-09T20:13:09.891Z,2.30
2024-05-09T20:15:38.267Z,2.10
2024-05-09T20:18:07.369Z,2.10
2024-05-09T20:20:40.054Z,2.10
2024-05-09T20:23:12.308Z,2.10
2024-05-09T20:25:41.642Z,2.50
2024-05-09T20:28:10.523Z,2.70
2024-05-09T20:30:38.828Z,2.20
2024-05-09T20:33:08.425Z,2.70
2024-05-09T20:35:37.628Z,2.40
2024-05-09T20:38:05.932Z,2.50
2024-05-09T20:40:37.726Z,2.70
2024-05-09T20:43:09.277Z,3.40
2024-05-09T20:45:37.808Z,3.10
2024-05-09T20:48:07.112Z,3.20
2024-05-09T20:50:39.620Z,3.70
2024-05-09T20:53:14.719Z,4.00
2024-05-09T20:55:44.746Z,3.60
2024-05-09T20:58:13.728Z,3.80
2024-05-09T21:00:44.544Z,4.00
2024-05-09T21:03:16.640Z,4.00
2024-05-09T21:05:47.261Z,4.10
2024-05-09T21:08:15.940Z,4.10
2024-05-09T21:10:44.181Z,4.40
2024-05-09T21:13:12.443Z,5.40
2024-05-09T21:15:40.553Z,4.90
2024-05-09T21:18:08.846Z,5.20
2024-05-09T21:20:37.729Z,4.90
2024-05-09T21:23:05.972Z,4.20
2024-05-09T21:25:34.079Z,4.80
2024-05-09T21:28:03.426Z,4.00
2024-05-09T21:30:40.149Z,4.70
2024-05-09T21:33:13.636Z,4.70
2024-05-09T21:35:43.425Z,4.60
2024-05-09T21:38:14.124Z,5.00
2024-05-09T21:40:43.361Z,4.40
2024-05-09T21:43:11.669Z,4.20
2024-05-09T21:45:39.679Z,4.60
2024-05-09T21:48:08.437Z,5.10
2024-05-09T21:50:40.911Z,4.90
2024-05-09T21:53:11.892Z,5.40
2024-05-09T21:55:41.813Z,5.50
2024-05-09T21:58:10.568Z,5.50
2024-05-09T22:00:40.287Z,6.10
2024-05-09T22:03:10.096Z,5.70
2024-05-09T22:08:11.159Z,6.10
2024-05-09T22:10:39.230Z,6.70
2024-05-09T22:13:08.405Z,7.70
2024-05-09T22:15:39.190Z,7.10
2024-05-09T22:18:10.382Z,7.90
2024-05-09T22:20:47.095Z,7.60
2024-05-09T22:23:15.996Z,8.30
2024-05-09T22:25:44.488Z,7.90
2024-05-09T22:28:16.254Z,7.50
2024-05-09T22:30:46.215Z,8.50
2024-05-09T22:33:15.359Z,7.40
2024-05-09T22:35:43.504Z,6.90
2024-05-09T22:38:11.454Z,6.20
2024-05-09T22:40:46.983Z,5.30
2024-05-09T22:43:23.824Z,5.80
2024-05-09T22:45:56.793Z,5.30
2024-05-09T22:48:25.655Z,5.60
2024-05-09T22:50:54.829Z,5.40
2024-05-09T22:53:24.752Z,5.20
2024-05-09T22:55:53.035Z,4.80
2024-05-09T22:58:21.570Z,4.10
2024-05-09T23:00:49.804Z,4.00
2024-05-09T23:03:21.488Z,3.80
2024-05-09T23:05:50.443Z,4.20
2024-05-09T23:08:18.411Z,3.90
2024-05-09T23:10:46.405Z,3.70
2024-05-09T23:13:14.442Z,3.80
2024-05-09T23:15:42.831Z,3.40
2024-05-09T23:18:11.369Z,3.40
2024-05-09T23:20:40.279Z,3.60
2024-05-09T23:23:10.353Z,3.60
2024-05-09T23:25:43.391Z,3.50
2024-05-09T23:28:11.708Z,3.40
2024-05-09T23:30:41.209Z,3.50
2024-05-09T23:33:14.879Z,3.30
2024-05-09T23:35:44.451Z,3.20
2024-05-09T23:38:13.345Z,3.70
2024-05-09T23:40:42.647Z,3.50
2024-05-09T23:45:42.039Z,3.20
2024-05-09T23:48:10.904Z,3.40
2024-05-09T23:50:40.474Z,3.60
2024-05-09T23:53:10.156Z,3.60
2024-05-09T23:55:39.417Z,3.20
